Time,TemperatureF,DewpointF,PressureIn,WindDirection,WindDirectionDegrees,WindSpeedMPH,WindSpeedGustMPH,Humidity,HourlyPrecipIn,Conditions,Clouds,dailyrainin,SolarRadiationWatts/m^2,SoftwareType,DateUTC
2018-07-16 00:04:55,55.8,54.9,30.00,SW,216,8.1,11.0,97,0.00,,,0.00,0.00,meteobridge,2018-07-16 07:04:55,
2018-07-16 00:09:53,55.6,54.7,30.00,WSW,242,4.9,9.0,97,0.00,,,0.00,0.00,meteobridge,2018-07-16 07:09:53,
2018-07-16 00:14:57,55.6,54.7,30.00,SSW,209,2.9,9.0,97,0.00,,,0.00,0.00,meteobridge,2018-07-16 07:14:57,
2018-07-16 00:19:57,55.6,54.7,30.00,SSW,200,4.9,12.0,97,0.00,,,0.00,0.00,meteobridge,2018-07-16 07:19:57,
2018-07-16 00:24:53,55.6,54.7,30.00,SW,231,6.0,11.0,97,0.00,,,0.00,0.00,meteobridge,2018-07-16 07:24:53,
2018-07-16 00:29:55,55.6,54.7,30.00,WSW,247,2.9,9.0,97,0.00,,,0.00,0.00,meteobridge,2018-07-16 07:29:55,
2018-07-16 00:34:53,55.6,54.7,30.00,SSW,207,4.0,10.0,97,0.00,,,0.00,0.00,meteobridge,2018-07-16 07:34:53,
2018-07-16 00:39:57,55.6,54.7,30.00,SSW,211,4.0,9.0,97,0.00,,,0.00,0.00,meteobridge,2018-07-16 07:39:57,
2018-07-16 00:44:59,55.6,54.7,30.00,SW,216,4.9,8.0,97,0.00,,,0.00,0.00,meteobridge,2018-07-16 07:44:59,
2018-07-16 00:49:55,55.4,54.5,30.00,WNW,296,8.9,10.0,97,0.00,,,0.00,0.00,meteobridge,2018-07-16 07:49:55,
2018-07-16 00:54:55,55.2,54.3,30.00,WSW,244,6.9,10.0,97,0.00,,,0.00,0.00,meteobridge,2018-07-16 07:54:55,
2018-07-16 00:59:53,55.2,54.7,29.99,SW,221,4.9,8.0,98,0.00,,,0.00,0.00,meteobridge,2018-07-16 07:59:53,
2018-07-16 01:04:57,55.2,54.7,30.00,SSW,199,4.0,10.0,98,0.00,,,0.00,0.00,meteobridge,2018-07-16 08:04:57,
2018-07-16 01:09:53,55.4,54.9,29.99,SSW,205,4.9,10.0,98,0.00,,,0.00,0.00,meteobridge,2018-07-16 08:09:53,
2018-07-16 01:14:55,55.2,54.7,29.99,West,259,8.9,9.0,98,0.00,,,0.00,0.00,meteobridge,2018-07-16 08:14:55,
2018-07-16 01:19:57,55.2,54.7,29.99,SSW,198,2.9,7.0,98,0.00,,,0.00,0.00,meteobridge,2018-07-16 08:19:57,
2018-07-16 01:24:53,55.2,54.7,29.99,WSW,250,2.9,8.0,98,0.00,,,0.00,0.00,meteobridge,2018-07-16 08:24:53,
2018-07-16 01:29:57,55.2,54.7,29.99,WSW,239,2.9,9.0,98,0.00,,,0.00,0.00,meteobridge,2018-07-16 08:29:57,
2018-07-16 01:34:55,55.2,54.7,29.99,WSW,252,6.9,8.0,98,0.00,,,0.00,0.00,meteobridge,2018-07-16 08:34:55,
2018-07-16 01:39:53,55.0,54.5,29.99,SSW,205,4.9,10.0,98,0.00,,,0.00,0.00,meteobridge,2018-07-16 08:39:53,
2018-07-16 01:44:57,55.0,54.5,29.99,West,263,6.9,9.0,98,0.00,,,0.00,0.00,meteobridge,2018-07-16 08:44:57,
2018-07-16 01:49:53,55.0,54.5,29.99,WSW,256,6.0,10.0,98,0.00,,,0.00,0.00,meteobridge,2018-07-16 08:49:53,
2018-07-16 01:54:57,54.9,54.3,29.99,WSW,249,4.0,7.0,98,0.00,,,0.00,0.00,meteobridge,2018-07-16 08:54:57,
2018-07-16 01:59:55,54.9,54.3,29.99,WSW,256,6.9,9.0,98,0.00,,,0.00,0.00,meteobridge,2018-07-16 08:59:55,
2018-07-16 02:04:51,54.9,54.3,29.99,SW,223,4.0,6.0,98,0.00,,,0.00,0.00,meteobridge,2018-07-16 09:04:51,
2018-07-16 02:09:53,54.9,54.3,29.99,West,260,4.9,12.0,98,0.00,,,0.00,0.00,meteobridge,2018-07-16 09:09:53,
2018-07-16 02:14:53,54.9,54.3,29.99,West,273,6.9,8.0,98,0.00,,,0.00,0.00,meteobridge,2018-07-16 09:14:53,
2018-07-16 02:19:53,54.7,54.1,29.99,WSW,240,6.9,9.0,98,0.00,,,0.00,0.00,meteobridge,2018-07-16 09:19:53,
2018-07-16 02:24:55,54.7,54.1,29.99,West,265,6.9,8.0,98,0.00,,,0.00,0.00,meteobridge,2018-07-16 09:24:55,
2018-07-16 02:29:57,54.5,54.0,29.99,SW,235,2.0,7.0,98,0.00,,,0.00,0.00,meteobridge,2018-07-16 09:29:57,
2018-07-16 02:34:53,54.5,54.0,29.99,WSW,245,2.0,8.0,98,0.00,,,0.00,0.00,meteobridge,2018-07-16 09:34:53,
2018-07-16 02:39:57,54.5,54.1,29.99,West,281,6.9,7.0,99,0.00,,,0.00,0.00,meteobridge,2018-07-16 09:39:57,
2018-07-16 02:44:55,54.7,54.3,29.99,SW,223,4.9,11.0,99,0.00,,,0.00,0.00,meteobridge,2018-07-16 09:44:55,
2018-07-16 02:49:55,54.7,54.1,29.99,WSW,246,4.0,6.0,98,0.00,,,0.00,0.00,meteobridge,2018-07-16 09:49:55,
2018-07-16 02:54:57,54.7,54.3,29.99,WSW,244,6.0,8.0,99,0.00,,,0.00,0.00,meteobridge,2018-07-16 09:54:57,
2018-07-16 02:59:55,54.7,54.3,29.99,SW,222,4.0,5.0,99,0.00,,,0.00,0.00,meteobridge,2018-07-16 09:59:55,
2018-07-16 03:04:49,54.7,54.1,29.99,West,277,4.9,7.0,98,0.00,,,0.00,0.00,meteobridge,2018-07-16 10:04:49,
2018-07-16 03:09:53,54.5,54.0,29.99,SW,219,2.9,8.0,98,0.00,,,0.00,0.00,meteobridge,2018-07-16 10:09:53,
2018-07-16 03:14:55,54.5,54.1,29.99,SW,217,2.9,7.0,99,0.00,,,0.00,0.00,meteobridge,2018-07-16 10:14:55,
2018-07-16 03:19:53,54.3,53.8,29.99,West,266,2.9,7.0,98,0.00,,,0.00,0.00,meteobridge,2018-07-16 10:19:53,
2018-07-16 03:24:57,54.3,54.0,29.99,West,273,2.0,9.0,99,0.00,,,0.00,0.00,meteobridge,2018-07-16 10:24:57,
2018-07-16 03:29:55,54.3,54.0,29.99,WSW,245,4.9,9.0,99,0.00,,,0.00,0.00,meteobridge,2018-07-16 10:29:55,
2018-07-16 03:34:55,54.3,54.0,29.99,SW,215,6.0,7.0,99,0.00,,,0.00,0.00,meteobridge,2018-07-16 10:34:55,
2018-07-16 03:39:57,54.3,54.0,29.99,WSW,252,10.1,11.0,99,0.00,,,0.00,0.00,meteobridge,2018-07-16 10:39:57,
2018-07-16 03:44:57,54.1,53.8,29.99,WSW,247,2.0,8.0,99,0.00,,,0.00,0.00,meteobridge,2018-07-16 10:44:57,
2018-07-16 03:49:51,54.3,54.0,29.99,WSW,242,2.0,8.0,99,0.00,,,0.00,0.00,meteobridge,2018-07-16 10:49:51,
2018-07-16 03:54:55,54.3,54.0,29.99,West,280,10.1,11.0,99,0.00,,,0.00,0.00,meteobridge,2018-07-16 10:54:55,
2018-07-16 03:59:55,54.3,54.0,29.99,WSW,253,8.9,9.0,99,0.00,,,0.00,0.00,meteobridge,2018-07-16 10:59:55,
2018-07-16 04:04:55,54.3,54.0,29.99,West,267,8.9,10.0,99,0.00,,,0.00,0.00,meteobridge,2018-07-16 11:04:55,
2018-07-16 04:09:53,54.3,54.0,29.99,SW,229,4.9,9.0,99,0.00,,,0.00,0.00,meteobridge,2018-07-16 11:09:53,
2018-07-16 04:14:57,54.5,54.1,29.99,SW,223,2.9,9.0,99,0.00,,,0.00,0.00,meteobridge,2018-07-16 11:14:57,
2018-07-16 04:19:55,54.7,54.3,29.99,SW,236,6.0,7.0,99,0.00,,,0.00,0.00,meteobridge,2018-07-16 11:19:55,
2018-07-16 04:24:55,54.7,54.3,30.00,WNW,290,4.9,9.0,99,0.00,,,0.00,0.00,meteobridge,2018-07-16 11:24:55,
2018-07-16 04:29:59,54.5,54.1,29.99,SW,234,4.0,7.0,99,0.00,,,0.00,0.00,meteobridge,2018-07-16 11:29:59,
2018-07-16 04:34:53,54.7,54.3,29.99,WSW,246,4.9,8.0,99,0.00,,,0.00,0.00,meteobridge,2018-07-16 11:34:53,
2018-07-16 04:39:51,54.3,54.0,29.99,West,266,6.9,7.0,99,0.00,,,0.00,0.00,meteobridge,2018-07-16 11:39:51,
2018-07-16 04:44:55,54.3,54.0,29.99,SSW,194,4.0,8.0,99,0.00,,,0.00,0.00,meteobridge,2018-07-16 11:44:55,
2018-07-16 04:49:53,54.3,54.0,29.99,WSW,253,2.9,7.0,99,0.00,,,0.00,0.00,meteobridge,2018-07-16 11:49:53,
2018-07-16 04:54:55,54.3,54.0,29.99,WSW,244,6.0,8.0,99,0.00,,,0.00,0.00,meteobridge,2018-07-16 11:54:55,
2018-07-16 04:59:55,54.1,53.8,29.99,SW,217,6.0,7.0,99,0.00,,,0.00,0.00,meteobridge,2018-07-16 11:59:55,
2018-07-16 05:04:55,54.3,54.0,29.99,WNW,284,2.9,8.0,99,0.00,,,0.00,0.00,meteobridge,2018-07-16 12:04:55,
2018-07-16 05:09:57,54.3,54.0,29.99,WSW,239,2.9,7.0,99,0.00,,,0.00,0.00,meteobridge,2018-07-16 12:09:57,
2018-07-16 05:14:55,54.3,54.0,30.00,SSW,213,4.0,7.0,99,0.00,,,0.00,0.00,meteobridge,2018-07-16 12:14:55,
2018-07-16 05:19:55,54.3,54.0,29.99,SSW,212,2.9,8.0,99,0.00,,,0.00,0.00,meteobridge,2018-07-16 12:19:55,
2018-07-16 05:24:57,54.3,54.0,29.99,WSW,248,0.9,5.0,99,0.00,,,0.00,0.00,meteobridge,2018-07-16 12:24:57,
2018-07-16 05:29:53,54.3,54.0,29.99,SW,215,4.9,7.0,99,0.00,,,0.00,0.00,meteobridge,2018-07-16 12:29:53,
2018-07-16 05:34:55,54.3,54.0,29.99,SSW,212,4.9,9.0,99,0.00,,,0.00,0.00,meteobridge,2018-07-16 12:34:55,
2018-07-16 05:39:53,54.3,54.0,30.00,WSW,240,4.9,6.0,99,0.00,,,0.00,0.00,meteobridge,2018-07-16 12:39:53,
2018-07-16 05:44:53,54.3,54.0,30.00,SW,234,2.9,9.0,99,0.00,,,0.00,0.00,meteobridge,2018-07-16 12:44:53,
2018-07-16 05:49:55,54.3,54.0,30.01,SW,222,4.0,6.0,99,0.00,,,0.00,0.00,meteobridge,2018-07-16 12:49:55,
2018-07-16 05:54:59,54.3,54.0,30.01,SW,217,2.9,9.0,99,0.00,,,0.00,0.00,meteobridge,2018-07-16 12:54:59,
2018-07-16 05:59:57,54.5,54.1,30.01,SW,225,4.0,7.0,99,0.00,,,0.00,0.00,meteobridge,2018-07-16 12:59:57,
2018-07-16 06:04:57,54.5,54.1,30.01,WSW,238,2.0,7.0,99,0.00,,,0.00,0.00,meteobridge,2018-07-16 13:04:57,
2018-07-16 06:09:59,54.3,54.0,30.01,West,271,2.9,4.0,99,0.00,,,0.00,0.00,meteobridge,2018-07-16 13:09:59,
2018-07-16 06:14:55,54.3,54.0,30.01,SW,219,4.0,6.0,99,0.00,,,0.00,0.00,meteobridge,2018-07-16 13:14:55,
2018-07-16 06:19:53,54.3,54.0,30.01,SW,231,4.9,5.0,99,0.00,,,0.00,5.00,meteobridge,2018-07-16 13:19:53,
2018-07-16 06:24:55,54.5,54.1,30.01,WSW,239,2.0,4.0,99,0.00,,,0.00,7.00,meteobridge,2018-07-16 13:24:55,
2018-07-16 06:29:55,54.7,54.3,30.01,WSW,250,2.9,9.0,99,0.00,,,0.00,9.00,meteobridge,2018-07-16 13:29:55,
2018-07-16 06:34:57,54.7,54.3,30.01,WSW,248,2.0,6.0,99,0.00,,,0.00,11.00,meteobridge,2018-07-16 13:34:57,
2018-07-16 06:39:55,54.5,54.1,30.01,SW,219,4.0,5.0,99,0.00,,,0.00,12.00,meteobridge,2018-07-16 13:39:55,
2018-07-16 06:44:53,54.7,54.3,30.01,SW,235,2.0,6.0,99,0.00,,,0.00,16.00,meteobridge,2018-07-16 13:44:53,
2018-07-16 06:49:57,54.7,54.3,30.01,SW,232,0.9,6.0,99,0.00,,,0.00,18.00,meteobridge,2018-07-16 13:49:57,
2018-07-16 06:54:55,54.7,54.3,30.01,SW,227,2.9,5.0,99,0.00,,,0.00,23.00,meteobridge,2018-07-16 13:54:55,
2018-07-16 06:59:53,54.7,54.3,30.01,SW,236,2.9,5.0,99,0.00,,,0.00,26.00,meteobridge,2018-07-16 13:59:53,
2018-07-16 07:04:57,54.7,54.3,30.01,WSW,242,2.0,6.0,99,0.00,,,0.00,32.00,meteobridge,2018-07-16 14:04:57,
2018-07-16 07:09:53,54.7,54.3,30.02,SW,236,4.9,7.0,99,0.00,,,0.00,33.00,meteobridge,2018-07-16 14:09:53,
2018-07-16 07:14:57,54.9,54.5,30.02,SW,223,2.9,5.0,99,0.00,,,0.00,35.00,meteobridge,2018-07-16 14:14:57,
2018-07-16 07:19:57,54.9,54.5,30.02,WSW,252,2.9,6.0,99,0.00,,,0.00,40.00,meteobridge,2018-07-16 14:19:57,
2018-07-16 07:24:55,54.9,54.5,30.02,SSW,212,4.0,6.0,99,0.00,,,0.00,40.00,meteobridge,2018-07-16 14:24:55,
2018-07-16 07:29:57,54.9,54.3,30.02,West,259,2.0,4.0,98,0.00,,,0.00,53.00,meteobridge,2018-07-16 14:29:57,
2018-07-16 07:34:53,54.9,54.3,30.02,SW,225,4.9,7.0,98,0.00,,,0.00,53.00,meteobridge,2018-07-16 14:34:53,
2018-07-16 07:39:53,54.9,54.3,30.02,SW,231,2.0,6.0,98,0.00,,,0.00,63.00,meteobridge,2018-07-16 14:39:53,
2018-07-16 07:44:55,54.9,54.3,30.02,SSW,208,4.0,4.0,98,0.00,,,0.00,58.00,meteobridge,2018-07-16 14:44:55,
2018-07-16 07:49:55,54.9,54.3,30.02,WSW,243,4.9,5.0,98,0.00,,,0.00,67.00,meteobridge,2018-07-16 14:49:55,
2018-07-16 07:54:55,55.0,54.5,30.02,West,269,2.9,4.0,98,0.00,,,0.00,70.00,meteobridge,2018-07-16 14:54:55,
2018-07-16 07:59:53,55.0,54.5,30.03,WSW,258,2.9,6.0,98,0.00,,,0.00,74.00,meteobridge,2018-07-16 14:59:53,